createdAt,value
2022-09-18T00:01:38.101Z,96814.19
2022-09-18T00:04:09.245Z,96815.28
2022-09-18T00:06:40.045Z,96817.66
2022-09-18T00:09:10.300Z,96810.75
2022-09-18T00:11:40.149Z,96806.47
2022-09-18T00:14:10.032Z,96806.88
2022-09-18T00:16:39.292Z,96813.81
2022-09-18T00:19:09.400Z,96821.25
2022-09-18T00:21:37.676Z,96814.44
2022-09-18T00:24:06.200Z,96822.72
2022-09-18T00:26:35.469Z,96817.91
2022-09-18T00:29:03.900Z,96828.50
2022-09-18T00:31:33.524Z,96835.56
2022-09-18T00:34:04.041Z,96835.56
2022-09-18T00:36:33.341Z,96832.25
2022-09-18T00:39:02.510Z,96834.88
2022-09-18T00:41:32.587Z,96833.91
2022-09-18T00:44:31.745Z,96839.31
2022-09-18T00:47:04.631Z,96848.75
2022-09-18T00:49:33.366Z,96844.66
2022-09-18T00:52:03.629Z,96843.13
2022-09-18T00:54:34.382Z,96850.13
2022-09-18T00:57:05.909Z,96854.84
2022-09-18T00:59:35.781Z,96853.44
2022-09-18T01:02:04.498Z,96865.91
2022-09-18T01:04:33.306Z,96865.41
2022-09-18T01:07:08.764Z,96865.69
2022-09-18T01:09:44.468Z,96861.19
2022-09-18T01:12:20.651Z,96869.97
2022-09-18T01:14:54.616Z,96871.31
2022-09-18T01:17:27.355Z,96870.38
2022-09-18T01:20:27.458Z,96877.31
2022-09-18T01:23:12.573Z,96866.16
2022-09-18T01:25:51.957Z,96875.25
2022-09-18T01:28:26.751Z,96882.72
2022-09-18T01:30:58.527Z,96877.50
2022-09-18T01:33:32.364Z,96883.66
2022-09-18T01:36:04.149Z,96879.53
2022-09-18T01:38:36.025Z,96886.50
2022-09-18T01:41:10.887Z,96881.16
2022-09-18T01:43:40.896Z,96884.84
2022-09-18T01:46:12.878Z,96883.19
2022-09-18T01:48:44.885Z,96885.75
2022-09-18T01:51:16.534Z,96888.00
2022-09-18T01:53:47.903Z,96880.00
2022-09-18T01:56:20.820Z,96887.00
2022-09-18T01:58:52.609Z,96882.66
2022-09-18T02:01:23.488Z,96888.00
2022-09-18T02:03:54.958Z,96877.88
2022-09-18T02:06:26.471Z,96875.16
2022-09-18T02:08:56.863Z,96879.44
2022-09-18T02:11:25.496Z,96871.88
2022-09-18T02:13:59.009Z,96863.13
2022-09-18T02:16:44.115Z,96870.28
2022-09-18T02:19:18.308Z,96864.72
2022-09-18T02:21:48.393Z,96867.56
2022-09-18T02:24:18.566Z,96860.13
2022-09-18T02:26:48.097Z,96853.66
2022-09-18T02:29:18.728Z,96862.19
2022-09-18T02:31:46.977Z,96854.19
2022-09-18T02:34:15.230Z,96845.59
2022-09-18T02:36:56.998Z,96845.59
2022-09-18T02:39:36.547Z,96849.56
2022-09-18T02:42:15.280Z,96847.28
2022-09-18T02:44:50.499Z,96843.41
2022-09-18T02:47:30.392Z,96837.19
2022-09-18T02:50:07.685Z,96848.72
2022-09-18T02:52:41.062Z,96850.28
2022-09-18T02:55:11.803Z,96842.84
2022-09-18T02:57:45.319Z,96844.06
2022-09-18T03:00:18.703Z,96838.66
2022-09-18T03:02:51.148Z,96846.94
2022-09-18T03:05:31.671Z,96840.25
2022-09-18T03:08:02.597Z,96847.63
2022-09-18T03:10:31.837Z,96832.66
2022-09-18T03:12:59.798Z,96839.34
2022-09-18T03:15:29.076Z,96854.69
2022-09-18T03:17:58.165Z,96841.03
2022-09-18T03:20:26.225Z,96835.31
2022-09-18T03:22:54.306Z,96844.72
2022-09-18T03:25:22.278Z,96847.63
2022-09-18T03:27:50.428Z,96850.63
2022-09-18T03:30:26.853Z,96844.00
2022-09-18T03:32:56.481Z,96854.78
2022-09-18T03:35:24.502Z,96854.28
2022-09-18T03:37:52.624Z,96846.66
2022-09-18T03:40:23.320Z,96839.50
2022-09-18T03:42:51.853Z,96852.06
2022-09-18T03:45:20.040Z,96846.72
2022-09-18T03:47:48.764Z,96856.38
2022-09-18T03:50:18.405Z,96851.56
2022-09-18T03:52:50.492Z,96854.13
2022-09-18T03:55:37.921Z,96850.94
2022-09-18T03:58:25.969Z,96849.44
2022-09-18T04:01:13.630Z,96850.38
2022-09-18T04:04:01.567Z,96853.31
2022-09-18T04:07:03.925Z,96855.16
2022-09-18T04:09:43.829Z,96854.38
2022-09-18T04:12:12.107Z,96852.50
2022-09-18T04:14:40.564Z,96849.00
2022-09-18T04:17:08.935Z,96857.84
2022-09-18T04:19:36.886Z,96851.44
2022-09-18T04:22:06.261Z,96855.16
2022-09-18T04:24:35.378Z,96862.44
2022-09-18T04:27:07.639Z,96863.22
2022-09-18T04:29:35.851Z,96860.19
2022-09-18T04:32:05.474Z,96863.16
2022-09-18T04:34:33.495Z,96861.50
2022-09-18T04:37:01.586Z,96856.53
2022-09-18T04:39:33.631Z,96849.91
2022-09-18T04:42:04.813Z,96852.03
2022-09-18T04:44:33.283Z,96845.59
2022-09-18T04:47:01.376Z,96850.94
2022-09-18T04:49:29.353Z,96849.81
2022-09-18T04:51:57.368Z,96848.47
2022-09-18T04:54:25.703Z,96855.16
2022-09-18T04:56:55.060Z,96844.00
2022-09-18T04:59:22.961Z,96842.41
2022-09-18T05:01:55.811Z,96856.56
2022-09-18T05:04:48.890Z,96853.69
2022-09-18T05:07:27.660Z,96851.59
2022-09-18T05:09:56.157Z,96857.19
2022-09-18T05:12:25.448Z,96866.00
2022-09-18T05:14:53.488Z,96873.50
2022-09-18T05:17:21.522Z,96867.34
2022-09-18T05:20:05.650Z,96874.03
2022-09-18T05:22:39.003Z,96878.53
2022-09-18T05:25:11.464Z,96873.19
2022-09-18T05:27:40.843Z,96882.00
2022-09-18T05:30:11.190Z,96882.00
2022-09-18T05:32:59.151Z,96880.66
2022-09-18T05:35:29.689Z,96877.72
2022-09-18T05:37:59.352Z,96875.31
2022-09-18T05:40:31.013Z,96877.63
2022-09-18T05:43:03.045Z,96871.84
2022-09-18T05:45:33.692Z,96876.31
2022-09-18T05:48:06.070Z,96872.78
2022-09-18T05:50:36.404Z,96869.63
2022-09-18T05:53:07.006Z,96866.94
2022-09-18T05:55:44.122Z,96866.38
2022-09-18T05:58:15.379Z,96887.78
2022-09-18T06:00:44.746Z,96887.28
2022-09-18T06:03:19.625Z,96891.59
2022-09-18T06:05:53.558Z,96888.34
2022-09-18T06:08:22.729Z,96888.84
2022-09-18T06:10:50.833Z,96894.72
2022-09-18T06:13:20.312Z,96889.34
2022-09-18T06:15:52.904Z,96884.25
2022-09-18T06:18:35.619Z,96897.34
2022-09-18T06:21:04.721Z,96896.72
2022-09-18T06:23:32.783Z,96901.81
2022-09-18T06:26:09.437Z,96898.59
2022-09-18T06:28:42.504Z,96895.91
2022-09-18T06:31:11.158Z,96902.28
2022-09-18T06:34:01.924Z,96902.03
2022-09-18T06:36:29.866Z,96903.63
2022-09-18T06:39:04.951Z,96905.16
2022-09-18T06:41:33.686Z,96900.31
2022-09-18T06:44:06.981Z,96906.69
2022-09-18T06:46:43.486Z,96905.63
2022-09-18T06:49:23.541Z,96902.28
2022-09-18T06:51:51.533Z,96904.97
2022-09-18T06:54:19.504Z,96909.78
2022-09-18T06:56:47.994Z,96904.41
2022-09-18T06:59:19.562Z,96905.69
2022-09-18T07:01:48.634Z,96901.69
2022-09-18T07:04:21.884Z,96909.09
2022-09-18T07:06:50.223Z,96903.16
2022-09-18T07:09:18.868Z,96904.75
2022-09-18T07:12:01.357Z,96902.94
2022-09-18T07:14:38.006Z,96912.72
2022-09-18T07:17:18.227Z,96909.97
2022-09-18T07:19:49.871Z,96918.53
2022-09-18T07:22:20.145Z,96914.78
2022-09-18T07:24:48.841Z,96921.22
2022-09-18T07:27:17.078Z,96917.38
2022-09-18T07:29:50.275Z,96922.16
2022-09-18T07:32:20.506Z,96924.09
2022-09-18T07:34:49.989Z,96928.31
2022-09-18T07:37:25.480Z,96928.56
2022-09-18T07:40:09.516Z,96922.91
2022-09-18T07:43:15.936Z,96926.31
2022-09-18T07:45:52.749Z,96918.75
2022-09-18T07:48:21.578Z,96927.78
2022-09-18T07:50:51.992Z,96928.84
2022-09-18T07:53:21.348Z,96933.63
2022-09-18T07:55:53.373Z,96929.31
2022-09-18T07:58:21.396Z,96924.50
2022-09-18T08:01:00.628Z,96925.94
2022-09-18T08:03:29.411Z,96923.94
2022-09-18T08:06:20.593Z,96922.91
2022-09-18T08:09:05.812Z,96928.44
2022-09-18T08:11:54.185Z,96930.91
2022-09-18T08:14:31.652Z,96926.91
2022-09-18T08:17:21.196Z,96932.47
2022-09-18T08:20:04.368Z,96930.31
2022-09-18T08:22:46.855Z,96933.19
2022-09-18T08:25:15.946Z,96942.03
2022-09-18T08:27:48.723Z,96944.22
2022-09-18T08:30:23.026Z,96949.59
2022-09-18T08:33:00.465Z,96944.78
2022-09-18T08:35:28.900Z,96946.41
2022-09-18T08:38:02.280Z,96944.72
2022-09-18T08:40:59.815Z,96947.19
2022-09-18T08:43:46.049Z,96942.56
2022-09-18T08:46:17.195Z,96933.34
2022-09-18T08:48:53.638Z,96943.06
2022-09-18T08:51:26.048Z,96941.91
2022-09-18T08:53:58.731Z,96943.81
2022-09-18T08:56:37.097Z,96935.44
2022-09-18T08:59:18.119Z,96931.69
2022-09-18T09:01:53.406Z,96944.28
2022-09-18T09:04:25.505Z,96942.31
2022-09-18T09:07:02.863Z,96935.78
2022-09-18T09:09:47.327Z,96940.00
2022-09-18T09:12:44.803Z,96948.13
2022-09-18T09:15:21.701Z,96951.34
2022-09-18T09:17:59.642Z,96955.53
2022-09-18T09:20:37.562Z,96947.56
2022-09-18T09:23:16.252Z,96950.16
2022-09-18T09:25:50.831Z,96947.56
2022-09-18T09:28:30.606Z,96957.94
2022-09-18T09:31:36.207Z,96955.44
2022-09-18T09:34:40.956Z,96954.13
2022-09-18T09:37:40.978Z,96955.53
2022-09-18T09:40:15.714Z,96957.56
2022-09-18T09:42:46.610Z,96958.50
2022-09-18T09:45:16.898Z,96957.41
2022-09-18T09:47:46.991Z,96954.19
2022-09-18T09:50:27.420Z,96945.66
2022-09-18T09:52:59.270Z,96942.66
2022-09-18T09:55:29.865Z,96944.50
2022-09-18T09:58:06.526Z,96950.25
2022-09-18T10:00:37.828Z,96952.31
2022-09-18T10:03:24.641Z,96942.38
2022-09-18T10:05:58.890Z,96947.53
2022-09-18T10:08:34.487Z,96944.78
2022-09-18T10:11:08.786Z,96950.94
2022-09-18T10:13:41.359Z,96954.53
2022-09-18T10:16:13.935Z,96949.78
2022-09-18T10:18:44.382Z,96952.19
2022-09-18T10:21:14.892Z,96952.28
2022-09-18T10:23:46.250Z,96952.59
2022-09-18T10:26:20.384Z,96951.41
2022-09-18T10:28:48.756Z,96950.66
2022-09-18T10:31:18.054Z,96940.28
2022-09-18T10:33:53.113Z,96951.41
2022-09-18T10:36:30.199Z,96947.63
2022-09-18T10:39:18.173Z,96953.53
2022-09-18T10:41:47.718Z,96953.63
2022-09-18T10:44:22.483Z,96947.84
2022-09-18T10:47:00.302Z,96941.78
2022-09-18T10:49:32.596Z,96941.09
2022-09-18T10:52:22.587Z,96950.03
2022-09-18T10:55:17.476Z,96942.69
2022-09-18T10:58:08.296Z,96951.97
2022-09-18T11:00:43.142Z,96934.13
2022-09-18T11:03:20.942Z,96936.41
2022-09-18T11:05:52.598Z,96946.28
2022-09-18T11:08:23.708Z,96945.09
2022-09-18T11:10:59.170Z,96947.66
2022-09-18T11:13:28.676Z,96942.97
2022-09-18T11:15:58.523Z,96937.50
2022-09-18T11:18:29.106Z,96939.50
2022-09-18T11:20:58.441Z,96932.84
2022-09-18T11:23:28.996Z,96939.91
2022-09-18T11:26:19.363Z,96922.56
2022-09-18T11:29:03.311Z,96920.47
2022-09-18T11:31:41.035Z,96927.72
2022-09-18T11:34:20.445Z,96917.78
2022-09-18T11:36:51.119Z,96914.38
2022-09-18T11:39:24.735Z,96917.06
2022-09-18T11:41:56.685Z,96913.78
2022-09-18T11:44:27.715Z,96920.84
2022-09-18T11:47:23.927Z,96913.06
2022-09-18T11:49:56.933Z,96904.84
2022-09-18T11:52:29.137Z,96910.59
2022-09-18T11:55:05.530Z,96896.94
2022-09-18T11:57:38.399Z,96897.84
2022-09-18T12:00:11.476Z,96901.41
2022-09-18T12:02:51.108Z,96908.63
2022-09-18T12:05:23.673Z,96904.38
2022-09-18T12:07:59.575Z,96906.34
2022-09-18T12:10:39.891Z,96913.41
2022-09-18T12:13:24.914Z,96905.53
2022-09-18T12:15:59.104Z,96904.38
2022-09-18T12:18:29.558Z,96909.34
2022-09-18T12:21:00.852Z,96914.41
2022-09-18T12:23:29.847Z,96907.63
2022-09-18T12:26:07.888Z,96909.22
2022-09-18T12:28:55.337Z,96911.19
2022-09-18T12:31:30.156Z,96909.41
2022-09-18T12:34:02.433Z,96891.97
2022-09-18T12:36:41.255Z,96901.78
2022-09-18T12:39:23.931Z,96893.81
2022-09-18T12:42:00.967Z,96887.69
2022-09-18T12:44:54.852Z,96896.13
2022-09-18T12:47:34.474Z,96886.97
2022-09-18T12:50:15.370Z,96895.16
2022-09-18T12:53:08.212Z,96895.53
2022-09-18T12:55:50.512Z,96899.22
2022-09-18T12:58:39.772Z,96891.16
2022-09-18T13:01:27.282Z,96883.19
2022-09-18T13:03:57.383Z,96898.94
2022-09-18T13:06:31.481Z,96889.94
2022-09-18T13:09:02.573Z,96880.94
2022-09-18T13:11:33.890Z,96881.47
2022-09-18T13:14:05.193Z,96881.25
2022-09-18T13:16:37.957Z,96877.41
2022-09-18T13:19:10.710Z,96890.78
2022-09-18T13:21:41.777Z,96877.78
2022-09-18T13:24:13.523Z,96879.75
2022-09-18T13:26:42.615Z,96862.78
2022-09-18T13:29:43.906Z,96870.56
2022-09-18T13:32:14.038Z,96879.03
2022-09-18T13:34:51.309Z,96871.69
2022-09-18T13:37:22.742Z,96863.50
2022-09-18T13:40:09.182Z,96873.03
2022-09-18T13:42:40.491Z,96862.13
2022-09-18T13:45:18.730Z,96856.75
2022-09-18T13:48:04.623Z,96852.19
2022-09-18T13:50:33.864Z,96858.56
2022-09-18T13:53:03.995Z,96859.69
2022-09-18T13:55:38.502Z,96859.72
2022-09-18T13:58:39.216Z,96853.03
2022-09-18T14:01:08.311Z,96850.53
2022-09-18T14:04:49.842Z,96842.81
2022-09-18T14:07:45.292Z,96845.91
2022-09-18T14:10:24.214Z,96842.91
2022-09-18T14:13:37.587Z,96847.22
2022-09-18T14:16:12.874Z,96835.84
2022-09-18T14:18:56.264Z,96836.44
2022-09-18T14:21:48.797Z,96825.06
2022-09-18T14:24:40.592Z,96829.84
2022-09-18T14:27:34.330Z,96821.94
2022-09-18T14:30:11.876Z,96821.47
2022-09-18T14:32:40.340Z,96821.09
2022-09-18T14:35:29.947Z,96819.38
2022-09-18T14:37:57.952Z,96820.63
2022-09-18T14:40:28.368Z,96808.88
2022-09-18T14:42:56.486Z,96807.28
2022-09-18T14:45:28.163Z,96804.28
2022-09-18T14:47:56.636Z,96804.09
2022-09-18T14:50:28.803Z,96799.81
2022-09-18T14:52:58.040Z,96794.00
2022-09-18T14:55:35.192Z,96794.97
2022-09-18T14:58:06.553Z,96785.13
2022-09-18T15:00:36.431Z,96789.75
2022-09-18T15:03:07.881Z,96785.13
2022-09-18T15:05:36.377Z,96780.53
2022-09-18T15:08:29.135Z,96779.13
2022-09-18T15:10:59.517Z,96788.97
2022-09-18T15:13:29.069Z,96774.53
2022-09-18T15:16:01.856Z,96786.41
2022-09-18T15:18:31.356Z,96783.41
2022-09-18T15:21:01.907Z,96777.53
2022-09-18T15:23:31.191Z,96781.66
2022-09-18T15:26:03.600Z,96776.56
2022-09-18T15:28:33.842Z,96774.66
2022-09-18T15:31:04.819Z,96782.59
2022-09-18T15:33:35.051Z,96778.75
2022-09-18T15:36:04.967Z,96783.34
2022-09-18T15:38:42.925Z,96777.34
2022-09-18T15:41:35.876Z,96781.44
2022-09-18T15:44:04.011Z,96789.03
2022-09-18T15:46:34.121Z,96784.09
2022-09-18T15:49:04.240Z,96779.19
2022-09-18T15:51:33.755Z,96783.63
2022-09-18T15:54:24.061Z,96769.00
2022-09-18T15:56:54.900Z,96773.66
2022-09-18T15:59:28.999Z,96770.75
2022-09-18T16:01:57.866Z,96776.94
2022-09-18T16:04:28.572Z,96772.81
2022-09-18T16:07:01.825Z,96780.63
2022-09-18T16:09:38.233Z,96768.19
2022-09-18T16:12:39.906Z,96776.41
2022-09-18T16:15:20.167Z,96769.31
2022-09-18T16:18:04.422Z,96768.81
2022-09-18T16:20:38.259Z,96757.09
2022-09-18T16:23:21.004Z,96766.13
2022-09-18T16:26:08.379Z,96761.03
2022-09-18T16:28:42.640Z,96754.19
2022-09-18T16:31:12.077Z,96760.66
2022-09-18T16:33:50.208Z,96754.47
2022-09-18T16:36:27.437Z,96756.97
2022-09-18T16:38:55.680Z,96752.22
2022-09-18T16:41:23.746Z,96749.84
2022-09-18T16:43:53.930Z,96748.44
2022-09-18T16:46:23.815Z,96753.22
2022-09-18T16:48:52.302Z,96746.50
2022-09-18T16:51:21.910Z,96751.06
2022-09-18T16:53:50.630Z,96745.50
2022-09-18T16:56:22.278Z,96743.56
2022-09-18T16:58:52.918Z,96751.19
2022-09-18T17:01:23.188Z,96745.81
2022-09-18T17:03:51.662Z,96747.59
2022-09-18T17:06:19.788Z,96753.00
2022-09-18T17:08:48.289Z,96745.41
2022-09-18T17:11:16.284Z,96751.41
2022-09-18T17:13:44.289Z,96751.97
2022-09-18T17:16:26.104Z,96752.41
2022-09-18T17:19:01.996Z,96747.28
2022-09-18T17:21:30.087Z,96752.53
2022-09-18T17:23:58.132Z,96756.56
2022-09-18T17:26:28.519Z,96762.66
2022-09-18T17:28:56.792Z,96761.47
2022-09-18T17:31:26.506Z,96758.75
2022-09-18T17:33:55.261Z,96754.72
2022-09-18T17:36:23.865Z,96756.38
2022-09-18T17:38:52.370Z,96750.94
2022-09-18T17:41:21.451Z,96752.31
2022-09-18T17:43:52.327Z,96751.97
2022-09-18T17:46:20.968Z,96748.38
2022-09-18T17:48:54.454Z,96751.78
2022-09-18T17:51:27.669Z,96752.88
2022-09-18T17:53:58.812Z,96754.47
2022-09-18T17:56:29.890Z,96757.44
2022-09-18T17:58:59.863Z,96757.09
2022-09-18T18:01:29.306Z,96750.19
2022-09-18T18:03:58.742Z,96749.72
2022-09-18T18:06:26.982Z,96758.91
2022-09-18T18:08:56.110Z,96758.91
2022-09-18T18:11:25.249Z,96763.66
2022-09-18T18:13:54.479Z,96762.06
2022-09-18T18:16:24.183Z,96754.84
2022-09-18T18:18:57.281Z,96758.78
2022-09-18T18:21:27.596Z,96757.31
2022-09-18T18:23:56.914Z,96764.31
2022-09-18T18:26:25.477Z,96758.91
2022-09-18T18:28:55.493Z,96762.19
2022-09-18T18:31:25.645Z,96767.16
2022-09-18T18:33:54.880Z,96766.59
2022-09-18T18:36:24.565Z,96758.16
2022-09-18T18:38:56.099Z,96772.31
2022-09-18T18:41:25.727Z,96766.34
2022-09-18T18:43:55.448Z,96756.09
2022-09-18T18:46:25.233Z,96757.31
2022-09-18T18:49:00.012Z,96761.47
2022-09-18T18:51:28.681Z,96767.16
2022-09-18T18:54:00.265Z,96771.47
2022-09-18T18:56:28.282Z,96778.31
2022-09-18T18:58:57.264Z,96772.69
2022-09-18T19:01:25.853Z,96768.63
2022-09-18T19:03:59.935Z,96780.72
2022-09-18T19:06:28.748Z,96766.84
2022-09-18T19:08:59.275Z,96780.63
2022-09-18T19:11:28.791Z,96773.19
2022-09-18T19:13:57.808Z,96770.81
2022-09-18T19:16:27.164Z,96773.19
2022-09-18T19:18:58.538Z,96762.56
2022-09-18T19:21:27.337Z,96765.19
2022-09-18T19:23:58.978Z,96755.84
2022-09-18T19:26:29.703Z,96762.56
2022-09-18T19:28:59.226Z,96765.59
2022-09-18T19:31:28.277Z,96762.44
2022-09-18T19:33:57.879Z,96747.91
2022-09-18T19:36:28.267Z,96750.59
2022-09-18T19:38:57.429Z,96746.91
2022-09-18T19:41:33.071Z,96754.25
2022-09-18T19:44:02.669Z,96754.03
2022-09-18T19:46:55.805Z,96748.50
2022-09-18T19:49:26.698Z,96758.66
2022-09-18T19:51:55.762Z,96749.47
2022-09-18T19:54:24.263Z,96747.28
2022-09-18T19:56:53.632Z,96745.09
2022-09-18T19:59:21.612Z,96740.06
2022-09-18T20:01:49.652Z,96728.81
2022-09-18T20:04:17.807Z,96719.22
2022-09-18T20:06:45.831Z,96735.72
2022-09-18T20:09:13.798Z,96725.94
2022-09-18T20:11:45.338Z,96721.06
2022-09-18T20:14:18.358Z,96726.13
2022-09-18T20:16:46.391Z,96719.75
2022-09-18T20:19:14.614Z,96710.13
2022-09-18T20:21:43.433Z,96710.47
2022-09-18T20:24:11.542Z,96709.38
2022-09-18T20:26:39.600Z,96706.69
2022-09-18T20:29:07.603Z,96705.47
2022-09-18T20:31:37.160Z,96701.44
2022-09-18T20:34:05.917Z,96698.81
2022-09-18T20:36:34.027Z,96691.31
2022-09-18T20:39:03.678Z,96688.75
2022-09-18T20:41:31.774Z,96694.72
2022-09-18T20:44:05.053Z,96692.66
2022-09-18T20:46:37.118Z,96696.31
2022-09-18T20:49:08.182Z,96693.91
2022-09-18T20:51:36.711Z,96693.66
2022-09-18T20:54:08.226Z,96696.69
2022-09-18T20:56:41.371Z,96697.22
2022-09-18T20:59:10.583Z,96703.41
2022-09-18T21:02:03.490Z,96697.66
2022-09-18T21:04:32.934Z,96688.13
2022-09-18T21:07:01.676Z,96711.94
2022-09-18T21:09:31.089Z,96700.69
2022-09-18T21:11:59.168Z,96688.53
2022-09-18T21:14:27.540Z,96693.69
2022-09-18T21:16:56.037Z,96695.03
2022-09-18T21:19:26.220Z,96695.16
2022-09-18T21:21:55.841Z,96692.00
2022-09-18T21:24:23.875Z,96691.38
2022-09-18T21:26:51.901Z,96689.00
2022-09-18T21:29:22.643Z,96686.59
2022-09-18T21:31:52.011Z,96673.88
2022-09-18T21:34:23.443Z,96675.84
2022-09-18T21:36:52.069Z,96671.50
2022-09-18T21:39:21.672Z,96667.50
2022-09-18T21:41:53.171Z,96681.53
2022-09-18T21:44:27.022Z,96682.03
2022-09-18T21:47:01.973Z,96664.94
2022-09-18T21:49:30.527Z,96673.47
2022-09-18T21:52:00.100Z,96669.31
2022-09-18T21:54:30.365Z,96666.72
2022-09-18T21:56:58.528Z,96662.94
2022-09-18T21:59:27.580Z,96656.97
2022-09-18T22:01:55.797Z,96658.56
2022-09-18T22:04:26.275Z,96658.38
2022-09-18T22:06:55.618Z,96661.06
2022-09-18T22:09:25.330Z,96651.91
2022-09-18T22:11:55.837Z,96663.34
2022-09-18T22:14:28.589Z,96658.47
2022-09-18T22:16:56.609Z,96662.75
2022-09-18T22:19:24.647Z,96664.94
2022-09-18T22:21:53.107Z,96663.66
2022-09-18T22:24:22.778Z,96662.44
2022-09-18T22:26:52.750Z,96666.44
2022-09-18T22:29:23.561Z,96669.41
2022-09-18T22:31:52.047Z,96667.31
2022-09-18T22:34:22.986Z,96662.94
2022-09-18T22:36:51.239Z,96668.69
2022-09-18T22:39:20.792Z,96660.63
2022-09-18T22:41:49.173Z,96653.19
2022-09-18T22:44:17.177Z,96667.69
2022-09-18T22:46:47.269Z,96674.22
2022-09-18T22:49:16.698Z,96665.91
2022-09-18T22:51:45.344Z,96666.00
2022-09-18T22:54:15.114Z,96666.91
2022-09-18T22:56:46.257Z,96674.47
2022-09-18T22:59:15.616Z,96674.56
2022-09-18T23:01:47.762Z,96681.03
2022-09-18T23:04:18.564Z,96677.13
2022-09-18T23:06:47.287Z,96680.22
2022-09-18T23:09:15.794Z,96671.06
2022-09-18T23:11:44.785Z,96679.59
2022-09-18T23:14:14.589Z,96678.31
2022-09-18T23:16:42.724Z,96678.41
2022-09-18T23:19:16.435Z,96681.25
2022-09-18T23:21:44.533Z,96680.16
2022-09-18T23:24:12.987Z,96673.38
2022-09-18T23:26:42.757Z,96679.63
2022-09-18T23:29:12.939Z,96674.38
2022-09-18T23:31:42.650Z,96675.75
2022-09-18T23:34:13.071Z,96668.78
2022-09-18T23:36:44.107Z,96665.75
2022-09-18T23:39:14.503Z,96667.97
2022-09-18T23:41:43.335Z,96672.06
2022-09-18T23:44:13.413Z,96665.56
2022-09-18T23:46:42.017Z,96670.28
2022-09-18T23:49:12.230Z,96671.13
2022-09-18T23:51:46.088Z,96673.00
2022-09-18T23:54:17.316Z,96658.31
2022-09-18T23:56:45.965Z,96667.97
2022-09-18T23:59:15.989Z,96655.66
